Time;durP1;ratioP1;P1;durP2;ratioP2;P2;SDS_P1;SDS_P2;PMS_P1;PMS_P2;Temp;Humidity;BMP_temperature;BMP_pressure;BME280_temperature;BME280_humidity;BME280_pressure;Samples;Min_cycle;Max_cycle;Signal;HPM_P1;HPM_P2
2022/06/19 00:00:01;;;;;;;10.00;6.63;;;;;;;19.54;83.90;100403.81;5022839;28;20219;-71
2022/06/19 00:02:40;;;;;;;9.63;5.30;;;;;;;19.54;83.73;100403.81;5016678;28;20204;-72
2022/06/19 00:05:09;;;;;;;9.13;6.20;;;;;;;19.49;84.40;100396.22;5019650;28;20219;-72
2022/06/19 00:07:35;;;;;;;9.27;5.77;;;;;;;19.47;84.99;100403.38;5023876;28;20239;-72
2022/06/19 00:10:02;;;;;;;10.73;5.80;;;;;;;19.48;85.04;100407.72;5023906;28;20231;-71
2022/06/19 00:12:28;;;;;;;8.07;6.27;;;;;;;19.45;85.39;100407.94;5023491;28;20621;-72
2022/06/19 00:14:55;;;;;;;10.33;6.47;;;;;;;19.40;85.84;100402.97;5027060;28;20240;-71
2022/06/19 00:17:21;;;;;;;9.50;6.07;;;;;;;19.37;86.11;100407.63;5026970;28;20596;-71
2022/06/19 00:19:47;;;;;;;16.43;6.83;;;;;;;19.34;85.45;100397.22;5023411;28;20326;-71
2022/06/19 00:22:15;;;;;;;10.67;6.03;;;;;;;19.33;85.98;100403.47;5023966;28;20623;-71
2022/06/19 00:24:42;;;;;;;12.83;7.10;;;;;;;19.32;84.97;100396.50;5021197;28;20498;-71
2022/06/19 00:27:08;;;;;;;7.30;5.70;;;;;;;19.32;84.73;100393.84;5026571;28;20222;-72
2022/06/19 00:29:34;;;;;;;8.77;5.47;;;;;;;19.31;85.27;100390.34;5022751;28;20279;-71
2022/06/19 00:32:04;;;;;;;11.47;6.03;;;;;;;19.29;86.05;100379.03;5024367;28;20196;-71
2022/06/19 00:34:31;;;;;;;8.67;5.60;;;;;;;19.25;86.08;100381.03;5022867;28;20572;-71
2022/06/19 00:37:00;;;;;;;9.00;5.57;;;;;;;19.22;87.60;100385.66;5021283;28;20227;-72
2022/06/19 00:39:28;;;;;;;10.33;6.17;;;;;;;19.19;88.03;100385.88;5023081;28;20235;-71
2022/06/19 00:41:55;;;;;;;8.23;6.40;;;;;;;19.14;85.81;100375.63;5024146;28;20199;-71
2022/06/19 00:44:22;;;;;;;14.03;5.90;;;;;;;19.15;85.41;100382.56;5022842;28;20212;-71
2022/06/19 00:46:52;;;;;;;8.60;6.30;;;;;;;19.13;84.25;100379.19;5021253;28;21961;-71
2022/06/19 00:49:23;;;;;;;7.80;5.60;;;;;;;19.10;84.55;100380.25;5024498;28;20282;-72
2022/06/19 00:51:57;;;;;;;6.73;5.47;;;;;;;19.10;85.48;100371.47;5020949;28;20308;-71
2022/06/19 00:54:24;;;;;;;12.53;5.77;;;;;;;19.09;86.04;100373.28;5021900;28;20285;-71
2022/06/19 00:56:52;;;;;;;7.13;4.97;;;;;;;19.09;87.80;100369.78;5024131;28;20567;-71
2022/06/19 00:59:19;;;;;;;8.93;5.83;;;;;;;19.06;87.98;100367.34;5022497;28;20219;-72
2022/06/19 01:01:46;;;;;;;8.90;5.70;;;;;;;19.01;87.87;100362.34;5024685;28;20736;-71
2022/06/19 01:04:19;;;;;;;8.17;5.23;;;;;;;18.98;86.55;100359.06;5021521;28;20457;-71
2022/06/19 01:06:45;;;;;;;7.83;6.13;;;;;;;18.97;86.01;100355.56;5022159;28;20208;-71
2022/06/19 01:09:11;;;;;;;8.20;5.67;;;;;;;19.00;86.41;100351.91;5020841;28;20207;-71
2022/06/19 01:11:39;;;;;;;10.77;6.00;;;;;;;19.00;86.63;100351.91;5028940;28;20302;-71
2022/06/19 01:14:10;;;;;;;10.23;6.40;;;;;;;18.97;87.72;100350.28;5021516;28;20202;-71
2022/06/19 01:16:37;;;;;;;9.23;6.00;;;;;;;18.96;88.79;100347.75;5023994;28;20335;-71
2022/06/19 01:19:04;;;;;;;7.27;5.43;;;;;;;18.91;87.24;100348.06;5020633;28;20696;-71
2022/06/19 01:21:37;;;;;;;13.13;6.17;;;;;;;19.00;85.08;100351.91;5021959;28;20406;-71
2022/06/19 01:24:12;;;;;;;12.17;6.13;;;;;;;19.05;84.82;100348.00;5015668;28;20676;-72
2022/06/19 01:26:44;;;;;;;8.40;6.10;;;;;;;19.07;85.04;100347.91;5017701;28;20211;-71
2022/06/19 01:29:10;;;;;;;10.93;5.63;;;;;;;19.03;86.58;100343.75;5011889;28;20208;-71
2022/06/19 01:31:42;;;;;;;11.17;6.23;;;;;;;18.97;86.59;100339.72;5026527;28;20200;-72
2022/06/19 01:36:54;;;;;;;8.23;5.90;;;;;;;18.89;87.69;100324.41;5020578;28;20293;-71
2022/06/19 01:39:23;;;;;;;11.20;6.20;;;;;;;18.85;88.31;100314.97;5019028;28;20245;-71
2022/06/19 01:41:50;;;;;;;11.20;5.97;;;;;;;18.85;87.45;100314.13;5022026;28;20204;-71
2022/06/19 01:44:17;;;;;;;12.50;6.33;;;;;;;18.90;86.67;100312.03;5018949;28;20196;-71
2022/06/19 01:46:43;;;;;;;9.97;6.23;;;;;;;18.97;84.63;100302.75;5023253;28;20223;-71
2022/06/19 01:49:10;;;;;;;10.17;6.50;;;;;;;19.08;83.39;100302.03;5020524;28;20205;-71
2022/06/19 01:51:37;;;;;;;9.10;6.20;;;;;;;19.21;82.59;100288.84;5019694;28;20300;-72
2022/06/19 01:54:12;;;;;;;9.27;6.47;;;;;;;19.23;82.30;100292.25;5017672;28;20616;-71
2022/06/19 01:56:38;;;;;;;9.23;6.43;;;;;;;19.29;81.34;100295.31;5025288;28;21193;-72
2022/06/19 01:59:09;;;;;;;10.70;6.07;;;;;;;19.32;81.79;100285.47;5017894;28;20206;-71
2022/06/19 02:01:37;;;;;;;14.03;6.37;;;;;;;19.28;82.38;100296.25;5021909;28;20204;-71
2022/06/19 02:04:06;;;;;;;9.53;6.27;;;;;;;19.23;81.86;100289.59;5023822;28;20424;-72
2022/06/19 02:06:39;;;;;;;15.20;6.57;;;;;;;19.27;81.17;100278.69;5020995;28;20568;-71
2022/06/19 02:09:06;;;;;;;9.23;6.30;;;;;;;19.34;80.05;100265.91;5018372;28;20436;-71
2022/06/19 02:11:34;;;;;;;9.73;6.30;;;;;;;19.35;80.20;100267.63;5023685;28;20207;-71
2022/06/19 02:14:02;;;;;;;9.07;6.73;;;;;;;19.41;79.28;100261.06;5023254;28;20192;-72
2022/06/19 02:16:29;;;;;;;11.53;6.60;;;;;;;19.39;80.49;100244.47;5022835;28;20207;-71
2022/06/19 02:18:56;;;;;;;9.83;6.60;;;;;;;19.38;80.57;100237.47;5026431;28;20223;-71
2022/06/19 02:21:36;;;;;;;9.53;5.93;;;;;;;19.37;80.49;100231.34;5020230;28;20216;-71
2022/06/19 02:24:03;;;;;;;9.33;6.23;;;;;;;19.38;79.62;100246.25;5020353;28;20304;-71
2022/06/19 02:26:30;;;;;;;10.60;6.13;;;;;;;19.35;79.86;100242.97;5021528;28;20215;-71
2022/06/19 02:28:56;;;;;;;18.20;6.50;;;;;;;19.31;79.78;100234.41;5017461;28;20206;-72
2022/06/19 02:31:23;;;;;;;10.50;6.60;;;;;;;19.26;80.78;100228.59;5017372;28;20212;-71
2022/06/19 02:33:52;;;;;;;10.07;5.90;;;;;;;19.23;80.02;100219.09;5017332;28;20196;-71
2022/06/19 02:36:34;;;;;;;8.67;6.20;;;;;;;19.21;82.12;100215.69;5018298;28;20248;-72
2022/06/19 02:39:18;;;;;;;10.30;6.83;;;;;;;19.14;82.62;100217.06;5017294;28;20203;-71
2022/06/19 02:41:53;;;;;;;9.10;5.70;;;;;;;19.10;84.41;100207.66;5024906;28;20195;-71
2022/06/19 02:44:19;;;;;;;12.33;6.30;;;;;;;19.06;84.15;100201.72;5021288;28;20203;-71
2022/06/19 02:46:46;;;;;;;9.10;6.03;;;;;;;19.01;84.53;100190.63;5023735;28;20230;-72
2022/06/19 02:49:13;;;;;;;9.17;5.87;;;;;;;18.97;86.67;100197.09;5020884;28;20204;-72
2022/06/19 02:51:40;;;;;;;12.80;6.67;;;;;;;18.91;86.86;100195.72;5022596;28;20215;-71
2022/06/19 02:54:06;;;;;;;8.63;5.73;;;;;;;18.87;87.02;100185.44;5020612;28;20207;-71
2022/06/19 02:56:32;;;;;;;11.40;6.30;;;;;;;18.85;86.16;100185.53;5024072;28;20712;-71
2022/06/19 02:58:59;;;;;;;9.00;6.30;;;;;;;18.80;85.92;100186.78;5023302;28;20207;-71
2022/06/19 03:01:26;;;;;;;6.73;6.03;;;;;;;18.78;88.28;100180.75;5023987;28;20212;-71
2022/06/19 03:03:52;;;;;;;9.43;5.93;;;;;;;18.74;88.42;100175.69;5019934;28;20206;-71
2022/06/19 03:06:20;;;;;;;10.57;6.47;;;;;;;18.72;89.04;100184.66;5017611;28;20223;-71
2022/06/19 03:08:46;;;;;;;8.03;6.37;;;;;;;18.71;85.85;100188.25;5017538;28;20200;-71
2022/06/19 03:11:13;;;;;;;7.63;6.53;;;;;;;18.72;85.60;100185.50;5021195;28;20219;-72
2022/06/19 03:13:39;;;;;;;9.30;6.47;;;;;;;18.76;85.40;100187.94;5022531;28;20218;-71
2022/06/19 03:16:07;;;;;;;12.00;6.27;;;;;;;18.78;85.10;100175.47;5017967;28;20715;-72
2022/06/19 03:18:34;;;;;;;10.40;5.93;;;;;;;18.82;83.99;100176.97;5018749;28;20533;-71
2022/06/19 03:21:01;;;;;;;7.87;5.93;;;;;;;18.89;82.77;100180.91;5062589;23;20229;-73
2022/06/19 03:23:29;;;;;;;10.77;6.73;;;;;;;18.97;82.34;100173.31;5066012;28;20277;-73
2022/06/19 03:25:55;;;;;;;11.50;6.23;;;;;;;19.00;82.14;100178.38;5067348;28;20202;-73
2022/06/19 03:28:21;;;;;;;9.70;6.00;;;;;;;19.04;82.39;100171.09;5066665;28;20320;-74
2022/06/19 03:30:51;;;;;;;9.87;6.47;;;;;;;19.07;82.25;100166.44;5062486;28;20219;-73
2022/06/19 03:33:18;;;;;;;9.93;5.90;;;;;;;19.09;82.40;100161.06;5064117;28;20557;-73
2022/06/19 03:35:44;;;;;;;7.37;5.93;;;;;;;19.13;82.44;100159.88;5064198;28;20199;-71
2022/06/19 03:38:11;;;;;;;9.83;6.07;;;;;;;19.16;82.30;100159.69;5062722;28;20203;-71
2022/06/19 03:40:38;;;;;;;6.70;5.37;;;;;;;19.21;82.08;100159.38;5064913;28;20215;-71
2022/06/19 03:43:05;;;;;;;16.03;6.57;;;;;;;19.24;82.25;100148.56;5068068;28;20199;-70
2022/06/19 03:45:31;;;;;;;8.93;6.67;;;;;;;19.28;82.16;100158.00;5064171;28;20203;-70
2022/06/19 03:47:58;;;;;;;7.47;5.77;;;;;;;19.31;82.38;100149.81;5050832;28;20215;-72
2022/06/19 03:50:24;;;;;;;12.37;6.10;;;;;;;19.32;84.07;100148.06;5059225;28;20230;-71
2022/06/19 03:52:51;;;;;;;10.17;5.67;;;;;;;19.38;83.36;100150.25;5068017;28;20194;-71
2022/06/19 03:55:17;;;;;;;17.20;6.93;;;;;;;19.41;83.89;100150.03;5062982;28;20207;-70
2022/06/19 03:57:45;;;;;;;7.90;6.57;;;;;;;19.42;82.94;100152.56;5069205;28;20198;-70
2022/06/19 04:00:16;;;;;;;7.40;6.00;;;;;;;19.48;82.80;100153.94;5067853;28;20226;-71
2022/06/19 04:02:43;;;;;;;9.60;6.37;;;;;;;19.52;82.50;100151.91;5063071;28;20182;-72
2022/06/19 04:05:11;;;;;;;8.23;5.90;;;;;;;19.57;82.94;100152.44;5066361;28;20741;-72
2022/06/19 04:07:43;;;;;;;11.03;6.50;;;;;;;19.67;82.47;100148.19;5063758;28;20211;-72
2022/06/19 04:10:10;;;;;;;10.27;6.70;;;;;;;19.73;82.23;100158.31;5062131;28;20226;-72
2022/06/19 04:12:37;;;;;;;7.87;6.13;;;;;;;19.81;81.69;100152.50;5067543;28;20278;-71
2022/06/19 04:15:06;;;;;;;10.77;6.93;;;;;;;19.90;82.63;100138.63;5062459;28;20199;-72
2022/06/19 04:17:32;;;;;;;10.70;6.40;;;;;;;19.97;81.83;100137.22;5062091;28;20645;-71
2022/06/19 04:19:59;;;;;;;12.00;6.17;;;;;;;20.04;80.08;100134.97;5063179;28;20584;-72
2022/06/19 04:22:25;;;;;;;10.73;5.80;;;;;;;20.14;78.92;100129.81;5065813;28;20226;-72
2022/06/19 04:24:51;;;;;;;8.37;5.77;;;;;;;20.24;78.06;100121.09;5062831;28;20222;-72
2022/06/19 04:27:18;;;;;;;10.10;5.63;;;;;;;20.36;78.75;100124.63;5065778;28;20580;-72
2022/06/19 04:29:44;;;;;;;8.03;5.50;;;;;;;20.44;78.32;100129.34;5066107;28;20227;-72
2022/06/19 04:32:12;;;;;;;8.53;5.10;;;;;;;20.52;77.42;100128.75;5061463;28;20214;-73
2022/06/19 04:34:39;;;;;;;7.70;5.23;;;;;;;20.60;79.11;100119.28;5064518;28;20214;-72
2022/06/19 04:37:05;;;;;;;6.33;5.00;;;;;;;20.67;78.54;100117.03;5062217;28;20210;-72
2022/06/19 04:39:31;;;;;;;10.27;5.53;;;;;;;20.77;78.27;100115.38;5068466;28;20710;-73
2022/06/19 04:41:58;;;;;;;9.47;5.43;;;;;;;20.89;78.02;100116.22;5064225;28;20206;-72
2022/06/19 04:44:24;;;;;;;7.70;4.50;;;;;;;20.98;76.33;100107.56;5060380;28;20731;-72
2022/06/19 04:46:51;;;;;;;8.40;4.80;;;;;;;21.08;75.98;100107.69;5067670;28;20203;-72
2022/06/19 04:49:19;;;;;;;8.97;4.80;;;;;;;21.16;74.80;100113.25;5064656;28;20669;-73
2022/06/19 04:51:46;;;;;;;12.27;4.80;;;;;;;21.27;74.47;100108.91;5068520;28;20191;-72
2022/06/19 04:54:12;;;;;;;9.93;4.77;;;;;;;21.35;74.89;100103.81;5061003;28;20209;-73
2022/06/19 04:56:39;;;;;;;8.83;4.40;;;;;;;21.47;73.91;100105.50;5066519;28;20191;-71
2022/06/19 04:59:06;;;;;;;5.33;3.73;;;;;;;21.58;75.42;100102.00;5063982;28;20195;-71
2022/06/19 05:01:35;;;;;;;5.37;4.00;;;;;;;21.72;74.98;100103.53;5065842;28;20207;-72
2022/06/19 05:04:08;;;;;;;6.83;4.33;;;;;;;21.84;74.63;100101.69;5065012;28;20199;-72
2022/06/19 05:06:36;;;;;;;4.23;3.80;;;;;;;21.99;73.69;100091.66;5063067;28;20205;-72
2022/06/19 05:09:02;;;;;;;8.83;3.83;;;;;;;22.10;75.12;100099.56;5064043;28;20210;-72
2022/06/19 05:11:31;;;;;;;6.67;3.73;;;;;;;22.23;72.16;100102.03;5064811;28;20227;-72
2022/06/19 05:13:58;;;;;;;6.77;3.80;;;;;;;22.37;72.05;100099.09;5059182;28;20273;-72
2022/06/19 05:16:25;;;;;;;5.63;3.40;;;;;;;22.50;71.87;100099.75;5063192;28;20207;-72
2022/06/19 05:18:54;;;;;;;11.50;3.67;;;;;;;22.65;71.54;100099.41;5062023;28;20205;-73
2022/06/19 05:21:22;;;;;;;4.87;3.33;;;;;;;22.79;70.86;100101.72;5064738;28;20227;-73
2022/06/19 05:23:52;;;;;;;5.63;3.53;;;;;;;22.94;70.45;100101.41;5067364;28;20207;-71
2022/06/19 05:26:20;;;;;;;3.90;3.03;;;;;;;23.07;69.87;100104.69;5071330;28;20558;-72
2022/06/19 05:28:48;;;;;;;8.00;2.80;;;;;;;23.19;69.04;100103.63;5070107;28;20221;-71
2022/06/19 05:31:16;;;;;;;3.17;2.45;;;;;;;23.35;68.11;100094.31;5074368;28;20272;-69
2022/06/19 05:33:42;;;;;;;6.57;2.90;;;;;;;23.52;66.85;100093.66;5052419;28;20241;-72
2022/06/19 05:36:09;;;;;;;6.80;3.13;;;;;;;23.68;66.83;100081.66;5065498;28;20547;-71
2022/06/19 05:38:35;;;;;;;3.75;2.50;;;;;;;23.83;65.66;100087.44;5061803;28;20192;-71
2022/06/19 05:41:03;;;;;;;5.45;3.05;;;;;;;23.96;63.86;100085.34;5065399;28;20648;-73
2022/06/19 05:43:32;;;;;;;4.55;2.58;;;;;;;24.09;65.37;100090.38;5060944;28;20202;-71
2022/06/19 05:46:01;;;;;;;3.35;2.33;;;;;;;24.26;63.05;100096.84;5063992;28;20213;-72
2022/06/19 05:48:28;;;;;;;5.15;2.55;;;;;;;24.42;62.97;100089.09;5060895;28;20812;-72
2022/06/19 05:51:04;;;;;;;4.28;2.70;;;;;;;24.53;62.04;100093.41;5064679;28;20226;-71
2022/06/19 05:53:32;;;;;;;7.10;2.85;;;;;;;24.65;61.69;100088.81;5059943;28;20201;-72
2022/06/19 05:55:59;;;;;;;6.82;2.97;;;;;;;24.80;61.37;100084.69;5061277;28;20199;-74
2022/06/19 05:58:27;;;;;;;6.05;2.80;;;;;;;24.93;60.94;100081.69;5061954;28;20299;-73
2022/06/19 06:00:54;;;;;;;6.03;3.13;;;;;;;25.06;60.38;100087.53;5060273;28;20879;-72
2022/06/19 06:03:22;;;;;;;4.35;2.58;;;;;;;25.22;59.11;100081.56;5062133;28;20541;-73
2022/06/19 06:05:50;;;;;;;4.13;2.70;;;;;;;25.33;59.04;100091.25;5063528;28;20298;-72
2022/06/19 06:08:18;;;;;;;5.32;2.92;;;;;;;25.50;58.44;100081.56;5062300;28;20228;-72
2022/06/19 06:10:45;;;;;;;6.80;2.80;;;;;;;25.63;58.65;100079.41;5058693;28;20233;-73
2022/06/19 06:13:13;;;;;;;3.78;2.70;;;;;;;25.70;58.47;100069.78;5048586;28;20205;-73
2022/06/19 06:15:40;;;;;;;7.80;3.10;;;;;;;25.82;56.50;100072.22;5062856;28;20195;-73
2022/06/19 06:18:07;;;;;;;5.57;2.60;;;;;;;25.92;55.98;100080.16;5062351;28;20286;-72
2022/06/19 06:20:33;;;;;;;3.67;2.70;;;;;;;26.03;56.93;100078.16;5062998;28;20229;-73
2022/06/19 06:23:00;;;;;;;3.03;2.60;;;;;;;26.14;55.15;100070.88;5059764;28;20213;-70
2022/06/19 06:25:26;;;;;;;4.97;2.60;;;;;;;26.20;55.08;100068.41;5060502;28;20207;-73
2022/06/19 06:27:52;;;;;;;4.72;2.60;;;;;;;26.31;56.21;100059.31;5061564;28;20309;-73
2022/06/19 06:30:19;;;;;;;6.00;2.60;;;;;;;26.42;55.90;100068.94;5059827;28;20563;-73
2022/06/19 06:32:46;;;;;;;9.15;3.08;;;;;;;26.60;54.85;100066.22;5063755;28;20194;-73
2022/06/19 06:35:13;;;;;;;8.40;2.85;;;;;;;26.72;53.72;100081.00;5058753;28;20226;-70
2022/06/19 06:37:39;;;;;;;7.63;2.60;;;;;;;26.80;53.28;100073.03;5043175;28;20198;-72
2022/06/19 06:40:07;;;;;;;9.05;2.80;;;;;;;26.94;54.54;100076.94;5046247;28;20301;-72
2022/06/19 06:42:34;;;;;;;5.03;2.97;;;;;;;27.05;52.75;100078.50;5062776;28;20206;-72
2022/06/19 06:45:00;;;;;;;8.48;2.45;;;;;;;27.16;52.78;100072.03;5056557;28;20240;-73
2022/06/19 06:47:27;;;;;;;6.25;3.10;;;;;;;27.24;52.76;100074.72;5062031;28;20195;-73
2022/06/19 06:49:55;;;;;;;3.10;2.47;;;;;;;27.39;50.98;100077.66;5056296;28;20554;-72
2022/06/19 06:52:21;;;;;;;5.38;2.60;;;;;;;27.49;50.70;100074.84;5062302;28;20214;-73
2022/06/19 06:54:48;;;;;;;7.22;2.75;;;;;;;27.60;51.03;100062.97;5058973;28;20195;-72
2022/06/19 06:57:14;;;;;;;3.80;2.50;;;;;;;27.70;51.26;100067.22;5061209;28;20620;-73
2022/06/19 06:59:41;;;;;;;6.55;2.60;;;;;;;27.83;50.08;100057.84;5060060;28;20218;-73
2022/06/19 07:02:07;;;;;;;2.50;2.30;;;;;;;27.99;49.89;100051.69;5059697;28;20204;-73
2022/06/19 07:04:34;;;;;;;5.57;2.75;;;;;;;28.16;50.56;100047.16;5059430;28;20203;-71
2022/06/19 07:07:02;;;;;;;4.13;2.97;;;;;;;28.26;49.35;100045.13;5058857;28;20206;-71
2022/06/19 07:09:28;;;;;;;3.03;2.20;;;;;;;28.35;48.88;100046.78;5060030;28;20254;-73
2022/06/19 07:11:54;;;;;;;3.03;2.35;;;;;;;28.42;47.21;100053.16;5059639;28;20201;-72
2022/06/19 07:14:21;;;;;;;5.53;2.30;;;;;;;28.42;47.22;100044.28;5059690;28;20222;-72
2022/06/19 07:16:47;;;;;;;2.50;2.20;;;;;;;28.47;47.12;100032.03;5058110;28;20211;-73
2022/06/19 07:19:14;;;;;;;4.63;2.58;;;;;;;28.63;46.15;100033.84;5058689;28;20187;-72
2022/06/19 07:21:40;;;;;;;2.88;2.20;;;;;;;28.78;46.41;100034.00;5054817;28;20219;-71
2022/06/19 07:24:08;;;;;;;3.47;2.20;;;;;;;28.91;44.91;100025.38;5061614;28;20209;-71
2022/06/19 07:26:35;;;;;;;5.90;2.38;;;;;;;29.07;44.43;100035.22;5060919;28;20202;-72
2022/06/19 07:29:02;;;;;;;3.10;2.05;;;;;;;29.18;44.05;100020.59;5061324;28;20229;-73
2022/06/19 07:31:28;;;;;;;3.13;1.95;;;;;;;29.22;43.99;100016.56;5052564;28;20562;-73
2022/06/19 07:33:55;;;;;;;4.85;2.30;;;;;;;29.29;43.17;100003.25;5061900;28;20202;-73
2022/06/19 07:36:23;;;;;;;5.05;2.50;;;;;;;29.38;43.02;100008.41;5056258;28;20576;-72
2022/06/19 07:38:50;;;;;;;5.07;2.03;;;;;;;29.47;42.68;100001.13;5059260;28;20198;-72
2022/06/19 07:41:18;;;;;;;5.15;2.10;;;;;;;29.57;41.95;99993.69;5058090;28;20783;-73
2022/06/19 07:43:45;;;;;;;9.50;2.17;;;;;;;29.70;42.50;100005.66;5059116;28;20206;-73
2022/06/19 07:46:12;;;;;;;3.78;2.35;;;;;;;29.83;41.79;99996.03;5059837;28;20317;-72
2022/06/19 07:51:26;;;;;;;7.20;2.30;;;;;;;30.09;40.62;99983.19;5041094;28;20309;-72
2022/06/19 07:53:52;;;;;;;5.05;2.35;;;;;;;30.21;40.74;99987.09;5061008;28;20656;-72
2022/06/19 07:56:20;;;;;;;4.38;2.20;;;;;;;30.29;40.72;99981.66;5058305;28;20217;-72
2022/06/19 07:58:46;;;;;;;7.43;2.58;;;;;;;30.39;40.46;99965.25;5058499;28;20194;-72
2022/06/19 08:01:13;;;;;;;10.07;2.30;;;;;;;30.48;39.78;99971.38;5057490;28;20237;-72
2022/06/19 08:03:39;;;;;;;12.43;2.40;;;;;;;30.57;39.40;99978.31;5055778;28;20727;-73
2022/06/19 08:06:06;;;;;;;5.82;2.05;;;;;;;30.78;39.39;99977.56;5056154;28;20221;-72
2022/06/19 08:08:33;;;;;;;8.10;2.30;;;;;;;30.88;38.86;99979.97;5054541;28;20641;-72
2022/06/19 08:11:01;;;;;;;15.45;2.70;;;;;;;30.99;38.37;99976.81;5059962;28;20225;-72
2022/06/19 08:13:31;;;;;;;4.55;1.88;;;;;;;31.07;38.08;99973.19;5036934;28;20656;-73
2022/06/19 08:15:59;;;;;;;12.40;2.75;;;;;;;31.14;37.70;99969.53;5053101;28;20199;-73
2022/06/19 08:18:26;;;;;;;17.73;2.97;;;;;;;31.23;37.28;99974.81;5056292;28;20675;-73
2022/06/19 08:20:53;;;;;;;13.35;2.35;;;;;;;31.37;37.43;99965.84;5056742;28;20246;-71
2022/06/19 08:23:21;;;;;;;14.30;2.88;;;;;;;31.36;37.07;99966.03;5054066;28;20207;-72
2022/06/19 08:25:48;;;;;;;13.80;2.95;;;;;;;31.36;37.13;99964.16;5058617;28;20855;-72
2022/06/19 08:28:17;;;;;;;10.20;2.65;;;;;;;31.44;36.43;99965.91;5057915;28;20257;-71
2022/06/19 08:30:45;;;;;;;9.68;2.63;;;;;;;31.50;36.02;99962.47;5058335;28;20218;-72
2022/06/19 08:33:11;;;;;;;16.63;2.92;;;;;;;31.51;36.38;99969.53;5059609;28;20203;-71
2022/06/19 08:35:42;;;;;;;13.02;2.38;;;;;;;31.56;35.64;99955.50;5059533;28;20198;-72
2022/06/19 08:38:13;;;;;;;8.85;2.90;;;;;;;31.64;35.16;99971.50;5055440;28;20218;-73
2022/06/19 08:40:53;;;;;;;10.60;2.47;;;;;;;31.56;34.80;99956.31;5062560;28;20426;-71
2022/06/19 08:43:38;;;;;;;7.32;2.28;;;;;;;31.70;35.69;99947.31;5057424;28;20194;-73
2022/06/19 08:46:19;;;;;;;7.25;2.38;;;;;;;31.83;35.91;99943.06;5059205;28;20206;-73
2022/06/19 08:48:59;;;;;;;4.63;2.20;;;;;;;31.98;35.53;99949.22;5060254;28;20202;-71
2022/06/19 08:51:34;;;;;;;7.03;2.30;;;;;;;32.05;34.84;99949.28;5059509;28;20222;-71
2022/06/19 08:54:31;;;;;;;6.32;2.17;;;;;;;32.17;35.15;99938.78;5053461;28;20202;-73
2022/06/19 08:57:06;;;;;;;8.68;2.63;;;;;;;32.23;34.83;99936.13;5059871;28;20199;-73
2022/06/19 08:59:47;;;;;;;5.80;2.00;;;;;;;32.34;34.28;99934.72;5057775;28;20720;-72
2022/06/19 09:02:29;;;;;;;3.88;1.98;;;;;;;32.54;34.89;99937.53;5062800;28;20213;-73
2022/06/19 09:08:20;;;;;;;9.40;1.92;;;;;;;32.56;34.07;99932.78;5055220;28;20305;-73
2022/06/19 09:10:51;;;;;;;7.70;1.77;;;;;;;32.69;34.53;99925.78;5054053;28;20458;-71
2022/06/19 09:13:42;;;;;;;4.20;2.08;;;;;;;32.89;34.07;99926.66;5061151;28;20198;-73
2022/06/19 09:16:14;;;;;;;7.40;2.25;;;;;;;32.91;33.16;99915.69;5057320;28;20222;-73
2022/06/19 09:18:52;;;;;;;6.78;2.00;;;;;;;32.94;33.79;99924.19;5056997;28;20588;-71
2022/06/19 09:21:27;;;;;;;7.53;2.40;;;;;;;32.96;33.05;99915.91;5059544;28;20234;-72
2022/06/19 09:24:16;;;;;;;15.45;2.58;;;;;;;33.01;33.41;99926.91;5066645;28;20484;-72
2022/06/19 09:26:47;;;;;;;5.60;2.25;;;;;;;33.13;33.61;99913.66;5060675;28;20252;-72
2022/06/19 09:29:19;;;;;;;6.38;2.25;;;;;;;33.25;33.11;99913.94;5058517;28;20714;-72
2022/06/19 09:31:53;;;;;;;7.15;2.35;;;;;;;33.39;33.29;99915.59;5061697;28;20210;-72
2022/06/19 09:34:24;;;;;;;7.03;2.50;;;;;;;33.36;32.64;99902.50;5063038;28;20322;-73
2022/06/19 09:36:56;;;;;;;9.93;2.55;;;;;;;33.29;32.30;99912.47;5059619;28;20660;-72
2022/06/19 09:39:27;;;;;;;7.32;2.05;;;;;;;33.36;32.27;99916.81;5060018;28;20214;-72
2022/06/19 09:42:02;;;;;;;6.95;2.42;;;;;;;33.33;32.24;99902.91;5059850;28;20199;-72
2022/06/19 09:44:35;;;;;;;9.25;2.72;;;;;;;33.45;32.55;99909.34;5060873;28;20710;-72
2022/06/19 09:47:06;;;;;;;8.32;2.40;;;;;;;33.52;32.50;99912.06;5061319;28;20206;-72
2022/06/19 09:49:40;;;;;;;10.77;2.30;;;;;;;33.54;32.17;99899.16;5062300;28;20227;-73
2022/06/19 09:52:12;;;;;;;11.30;2.15;;;;;;;33.66;31.90;99894.81;5056620;28;20206;-72
2022/06/19 09:54:43;;;;;;;7.30;2.10;;;;;;;33.84;32.63;99888.78;5061415;28;20237;-72
2022/06/19 09:57:14;;;;;;;8.15;2.70;;;;;;;33.88;31.80;99890.03;5060448;28;20207;-72
2022/06/19 09:59:49;;;;;;;9.07;2.53;;;;;;;33.96;31.40;99891.66;5054553;28;20554;-72
2022/06/19 10:02:22;;;;;;;10.35;3.00;;;;;;;33.95;31.70;99882.75;5061238;28;20202;-72
2022/06/19 10:04:55;;;;;;;10.40;2.47;;;;;;;33.98;31.77;99875.25;5061629;28;20199;-73
2022/06/19 10:07:27;;;;;;;9.60;2.50;;;;;;;33.95;31.66;99873.81;5062000;28;20218;-72
2022/06/19 10:09:58;;;;;;;13.55;2.75;;;;;;;34.08;31.59;99871.03;5061399;28;20238;-72
2022/06/19 10:12:30;;;;;;;12.50;2.97;;;;;;;34.18;32.06;99872.47;5060118;28;20686;-72
2022/06/19 10:15:01;;;;;;;9.25;2.83;;;;;;;34.09;31.77;99863.75;5060227;28;21020;-73
2022/06/19 10:17:34;;;;;;;6.80;2.67;;;;;;;34.04;31.44;99864.41;5059228;28;20570;-72
2022/06/19 10:20:12;;;;;;;8.07;2.30;;;;;;;34.22;31.50;99863.75;5062607;28;20704;-72
2022/06/19 10:22:50;;;;;;;6.82;2.38;;;;;;;34.35;31.17;99853.94;5056495;28;20203;-72
2022/06/19 10:25:29;;;;;;;8.70;2.67;;;;;;;34.35;31.17;99862.03;5058408;28;20206;-72
2022/06/19 10:28:04;;;;;;;8.93;2.30;;;;;;;34.31;30.57;99856.22;5057673;28;20202;-72
2022/06/19 10:30:37;;;;;;;4.60;2.30;;;;;;;34.41;30.08;99851.19;5056817;28;20972;-71
2022/06/19 10:33:21;;;;;;;5.85;2.10;;;;;;;34.56;30.64;99845.50;5060508;28;20202;-72
2022/06/19 10:35:52;;;;;;;10.70;2.53;;;;;;;34.61;29.71;99845.69;5058532;28;20273;-73
2022/06/19 10:38:31;;;;;;;7.35;2.63;;;;;;;34.70;30.58;99857.09;5055839;28;20447;-73
2022/06/19 10:41:03;;;;;;;10.45;2.85;;;;;;;34.76;29.56;99847.28;5050406;28;20571;-72
2022/06/19 10:43:43;;;;;;;5.22;2.20;;;;;;;34.70;28.76;99860.63;5049553;28;20207;-72
2022/06/19 10:46:14;;;;;;;13.18;2.45;;;;;;;34.75;28.85;99834.81;5048978;28;20209;-72
2022/06/19 10:48:48;;;;;;;9.30;2.58;;;;;;;34.78;28.45;99853.34;5053292;28;20201;-73
2022/06/19 10:51:31;;;;;;;12.70;2.50;;;;;;;34.80;29.34;99837.69;5054556;28;20221;-72
2022/06/19 10:54:16;;;;;;;8.32;2.45;;;;;;;35.05;29.31;99835.00;5055119;28;20676;-73
2022/06/19 10:56:50;;;;;;;13.50;2.65;;;;;;;35.03;29.05;99837.13;5061440;28;20202;-72
2022/06/19 10:59:17;;;;;;;10.32;2.28;;;;;;;35.11;29.50;99833.28;5059345;28;20202;-72
2022/06/19 11:04:48;;;;;;;12.63;2.70;;;;;;;35.19;29.01;99820.31;5053598;28;20559;-72
2022/06/19 11:07:18;;;;;;;9.13;2.75;;;;;;;35.14;29.27;99808.50;5054126;28;20198;-73
2022/06/19 11:09:48;;;;;;;12.88;2.83;;;;;;;35.15;29.29;99807.44;5058795;28;20364;-72
2022/06/19 11:12:22;;;;;;;13.40;2.92;;;;;;;35.10;28.53;99807.28;5055620;28;20206;-73
2022/06/19 11:14:53;;;;;;;6.38;2.83;;;;;;;35.03;29.14;99808.16;5055076;28;20197;-72
2022/06/19 11:17:31;;;;;;;9.60;2.28;;;;;;;35.17;29.40;99780.97;5053300;28;20281;-72
2022/06/19 11:19:57;;;;;;;9.52;2.92;;;;;;;35.24;29.03;99792.59;5058013;28;20298;-72
2022/06/19 11:22:34;;;;;;;9.10;2.40;;;;;;;35.32;30.05;99776.06;5055522;28;20198;-72
2022/06/19 11:25:25;;;;;;;7.20;2.42;;;;;;;35.31;28.69;99804.19;5059271;28;20606;-72
2022/06/19 11:27:54;;;;;;;11.45;2.75;;;;;;;35.34;29.61;99775.81;5053803;28;20375;-73
2022/06/19 11:30:27;;;;;;;6.20;2.47;;;;;;;35.39;29.18;99789.53;5052605;28;20258;-72
2022/06/19 11:32:55;;;;;;;6.85;2.60;;;;;;;35.40;29.29;99785.78;5057538;28;20244;-72
2022/06/19 11:35:22;;;;;;;7.63;2.67;;;;;;;35.57;28.73;99784.16;5056379;28;20207;-72
2022/06/19 11:37:52;;;;;;;12.18;2.70;;;;;;;35.53;28.86;99780.25;5054783;28;20203;-72
2022/06/19 11:40:28;;;;;;;9.40;2.60;;;;;;;35.52;28.98;99775.84;5056256;28;20210;-72
2022/06/19 11:42:57;;;;;;;9.65;2.65;;;;;;;35.53;28.90;99766.69;5053332;28;20194;-72
2022/06/19 11:45:29;;;;;;;10.73;3.00;;;;;;;35.45;28.83;99753.44;5055999;28;20206;-72
2022/06/19 11:48:02;;;;;;;11.80;2.67;;;;;;;35.63;28.51;99744.47;5057243;28;20197;-72